sensor_id;sensor_type;location;lat;lon;timestamp;temperature;humidity
23471;DHT22;11908;50.806;4.424;2022-09-21T00:00:49;10.00;99.90
23471;DHT22;11908;50.806;4.424;2022-09-21T00:03:15;10.00;99.90
23471;DHT22;11908;50.806;4.424;2022-09-21T00:05:41;10.00;99.90
23471;DHT22;11908;50.806;4.424;2022-09-21T00:08:10;9.90;99.90
23471;DHT22;11908;50.806;4.424;2022-09-21T00:10:36;9.90;99.90
23471;DHT22;11908;50.806;4.424;2022-09-21T00:13:02;9.80;99.90
23471;DHT22;11908;50.806;4.424;2022-09-21T00:15:29;9.80;99.90
23471;DHT22;11908;50.806;4.424;2022-09-21T00:17:57;9.90;99.90
23471;DHT22;11908;50.806;4.424;2022-09-21T00:20:23;9.80;99.90
23471;DHT22;11908;50.806;4.424;2022-09-21T00:22:50;9.70;99.90
23471;DHT22;11908;50.806;4.424;2022-09-21T00:25:17;9.80;99.90
23471;DHT22;11908;50.806;4.424;2022-09-21T00:27:43;9.80;99.90
23471;DHT22;11908;50.806;4.424;2022-09-21T00:30:13;9.70;99.90
23471;DHT22;11908;50.806;4.424;2022-09-21T00:32:39;9.70;99.90
23471;DHT22;11908;50.806;4.424;2022-09-21T00:35:06;9.60;99.90
23471;DHT22;11908;50.806;4.424;2022-09-21T00:37:33;9.70;99.90
23471;DHT22;11908;50.806;4.424;2022-09-21T00:39:59;9.70;99.90
23471;DHT22;11908;50.806;4.424;2022-09-21T00:42:28;9.60;99.90
23471;DHT22;11908;50.806;4.424;2022-09-21T00:44:55;9.60;99.90
23471;DHT22;11908;50.806;4.424;2022-09-21T00:47:41;9.70;99.90
23471;DHT22;11908;50.806;4.424;2022-09-21T00:50:11;9.70;99.90
23471;DHT22;11908;50.806;4.424;2022-09-21T00:52:42;9.60;99.90
23471;DHT22;11908;50.806;4.424;2022-09-21T00:55:19;9.50;99.90
23471;DHT22;11908;50.806;4.424;2022-09-21T00:57:50;9.50;99.90
23471;DHT22;11908;50.806;4.424;2022-09-21T01:00:17;9.50;99.90
23471;DHT22;11908;50.806;4.424;2022-09-21T01:02:43;9.40;99.90
23471;DHT22;11908;50.806;4.424;2022-09-21T01:05:09;9.40;99.90
23471;DHT22;11908;50.806;4.424;2022-09-21T01:07:38;9.40;99.90
23471;DHT22;11908;50.806;4.424;2022-09-21T01:10:08;9.40;99.90
23471;DHT22;11908;50.806;4.424;2022-09-21T01:15:54;9.30;99.90
23471;DHT22;11908;50.806;4.424;2022-09-21T01:18:35;9.40;99.90
23471;DHT22;11908;50.806;4.424;2022-09-21T01:29:11;9.30;99.90
23471;DHT22;11908;50.806;4.424;2022-09-21T01:31:51;9.30;99.90
23471;DHT22;11908;50.806;4.424;2022-09-21T01:34:27;9.20;99.90
23471;DHT22;11908;50.806;4.424;2022-09-21T01:36:57;9.20;99.90
23471;DHT22;11908;50.806;4.424;2022-09-21T01:39:25;9.20;99.90
23471;DHT22;11908;50.806;4.424;2022-09-21T01:41:52;9.20;99.90
23471;DHT22;11908;50.806;4.424;2022-09-21T01:44:23;9.10;99.90
23471;DHT22;11908;50.806;4.424;2022-09-21T01:46:52;9.10;99.90
23471;DHT22;11908;50.806;4.424;2022-09-21T01:49:33;9.20;99.90
23471;DHT22;11908;50.806;4.424;2022-09-21T01:55:12;9.10;99.90
23471;DHT22;11908;50.806;4.424;2022-09-21T01:57:48;9.10;99.90
23471;DHT22;11908;50.806;4.424;2022-09-21T02:00:16;9.10;99.90
23471;DHT22;11908;50.806;4.424;2022-09-21T02:02:48;9.20;99.90
23471;DHT22;11908;50.806;4.424;2022-09-21T02:05:18;9.10;99.90
23471;DHT22;11908;50.806;4.424;2022-09-21T02:07:45;9.10;99.90
23471;DHT22;11908;50.806;4.424;2022-09-21T02:10:22;9.10;99.90
23471;DHT22;11908;50.806;4.424;2022-09-21T02:12:53;9.10;99.90
23471;DHT22;11908;50.806;4.424;2022-09-21T02:15:24;9.10;99.90
23471;DHT22;11908;50.806;4.424;2022-09-21T02:18:03;9.00;99.90
23471;DHT22;11908;50.806;4.424;2022-09-21T02:20:58;9.10;99.90
23471;DHT22;11908;50.806;4.424;2022-09-21T02:26:04;9.00;99.90
23471;DHT22;11908;50.806;4.424;2022-09-21T02:31:48;8.90;99.90
23471;DHT22;11908;50.806;4.424;2022-09-21T02:34:18;8.90;99.90
23471;DHT22;11908;50.806;4.424;2022-09-21T02:36:51;8.90;99.90
23471;DHT22;11908;50.806;4.424;2022-09-21T02:39:36;8.80;99.90
23471;DHT22;11908;50.806;4.424;2022-09-21T02:42:07;8.80;99.90
23471;DHT22;11908;50.806;4.424;2022-09-21T02:45:00;8.80;99.90
23471;DHT22;11908;50.806;4.424;2022-09-21T02:47:46;8.80;99.90
23471;DHT22;11908;50.806;4.424;2022-09-21T02:50:24;8.80;99.90
23471;DHT22;11908;50.806;4.424;2022-09-21T02:52:52;8.80;99.90
23471;DHT22;11908;50.806;4.424;2022-09-21T02:55:18;8.80;99.90
23471;DHT22;11908;50.806;4.424;2022-09-21T02:57:45;8.80;99.90
23471;DHT22;11908;50.806;4.424;2022-09-21T03:00:14;8.70;99.90
23471;DHT22;11908;50.806;4.424;2022-09-21T03:02:42;8.70;99.90
23471;DHT22;11908;50.806;4.424;2022-09-21T03:05:10;8.70;99.90
23471;DHT22;11908;50.806;4.424;2022-09-21T03:07:36;8.70;99.90
23471;DHT22;11908;50.806;4.424;2022-09-21T03:10:03;8.70;99.90
23471;DHT22;11908;50.806;4.424;2022-09-21T03:12:29;8.70;99.90
23471;DHT22;11908;50.806;4.424;2022-09-21T03:14:54;8.70;99.90
23471;DHT22;11908;50.806;4.424;2022-09-21T03:17:20;8.70;99.90
23471;DHT22;11908;50.806;4.424;2022-09-21T03:19:46;8.60;99.90
23471;DHT22;11908;50.806;4.424;2022-09-21T03:22:12;8.60;99.90
23471;DHT22;11908;50.806;4.424;2022-09-21T03:24:37;8.60;99.90
23471;DHT22;11908;50.806;4.424;2022-09-21T03:27:17;8.60;99.90
23471;DHT22;11908;50.806;4.424;2022-09-21T03:29:43;8.60;99.90
23471;DHT22;11908;50.806;4.424;2022-09-21T03:32:09;8.60;99.90
23471;DHT22;11908;50.806;4.424;2022-09-21T03:34:35;8.60;99.90
23471;DHT22;11908;50.806;4.424;2022-09-21T03:37:05;8.60;99.90
23471;DHT22;11908;50.806;4.424;2022-09-21T03:39:31;8.60;99.90
23471;DHT22;11908;50.806;4.424;2022-09-21T03:41:56;8.60;99.90
23471;DHT22;11908;50.806;4.424;2022-09-21T03:44:23;8.60;99.90
23471;DHT22;11908;50.806;4.424;2022-09-21T03:46:49;8.60;99.90
23471;DHT22;11908;50.806;4.424;2022-09-21T03:49:18;8.60;99.90
23471;DHT22;11908;50.806;4.424;2022-09-21T03:51:44;8.60;99.90
23471;DHT22;11908;50.806;4.424;2022-09-21T03:54:10;8.60;99.90
23471;DHT22;11908;50.806;4.424;2022-09-21T03:56:36;8.50;99.90
23471;DHT22;11908;50.806;4.424;2022-09-21T03:59:02;8.50;99.90
23471;DHT22;11908;50.806;4.424;2022-09-21T04:01:28;8.50;99.90
23471;DHT22;11908;50.806;4.424;2022-09-21T04:03:53;8.40;99.90
23471;DHT22;11908;50.806;4.424;2022-09-21T04:06:19;8.50;99.90
23471;DHT22;11908;50.806;4.424;2022-09-21T04:08:45;8.40;99.90
23471;DHT22;11908;50.806;4.424;2022-09-21T04:11:16;8.50;99.90
23471;DHT22;11908;50.806;4.424;2022-09-21T04:13:43;8.50;99.90
23471;DHT22;11908;50.806;4.424;2022-09-21T04:16:09;8.50;99.90
23471;DHT22;11908;50.806;4.424;2022-09-21T04:18:36;8.50;99.90
23471;DHT22;11908;50.806;4.424;2022-09-21T04:21:03;8.50;99.90
23471;DHT22;11908;50.806;4.424;2022-09-21T04:23:30;8.40;99.90
23471;DHT22;11908;50.806;4.424;2022-09-21T04:25:56;8.40;99.90
23471;DHT22;11908;50.806;4.424;2022-09-21T04:28:25;8.40;99.90
23471;DHT22;11908;50.806;4.424;2022-09-21T04:30:53;8.30;99.90
23471;DHT22;11908;50.806;4.424;2022-09-21T04:33:20;8.40;99.90
23471;DHT22;11908;50.806;4.424;2022-09-21T04:35:46;8.50;99.90
23471;DHT22;11908;50.806;4.424;2022-09-21T04:38:12;8.50;99.90
23471;DHT22;11908;50.806;4.424;2022-09-21T04:40:38;8.40;99.90
23471;DHT22;11908;50.806;4.424;2022-09-21T04:43:04;8.40;99.90
23471;DHT22;11908;50.806;4.424;2022-09-21T04:45:29;8.40;99.90
23471;DHT22;11908;50.806;4.424;2022-09-21T04:47:56;8.30;99.90
23471;DHT22;11908;50.806;4.424;2022-09-21T04:50:22;8.30;99.90
23471;DHT22;11908;50.806;4.424;2022-09-21T04:52:48;8.40;99.90
23471;DHT22;11908;50.806;4.424;2022-09-21T04:55:14;8.40;99.90
23471;DHT22;11908;50.806;4.424;2022-09-21T04:57:39;8.40;99.90
23471;DHT22;11908;50.806;4.424;2022-09-21T05:00:05;8.40;99.90
23471;DHT22;11908;50.806;4.424;2022-09-21T05:02:31;8.40;99.90
23471;DHT22;11908;50.806;4.424;2022-09-21T05:04:57;8.30;99.90
23471;DHT22;11908;50.806;4.424;2022-09-21T05:07:22;8.30;99.90
23471;DHT22;11908;50.806;4.424;2022-09-21T05:09:48;8.30;99.90
23471;DHT22;11908;50.806;4.424;2022-09-21T05:12:33;8.30;99.90
23471;DHT22;11908;50.806;4.424;2022-09-21T05:15:00;8.30;99.90
23471;DHT22;11908;50.806;4.424;2022-09-21T05:17:26;8.30;99.90
23471;DHT22;11908;50.806;4.424;2022-09-21T05:19:52;8.30;99.90
23471;DHT22;11908;50.806;4.424;2022-09-21T05:22:18;8.30;99.90
23471;DHT22;11908;50.806;4.424;2022-09-21T05:24:44;8.30;99.90
23471;DHT22;11908;50.806;4.424;2022-09-21T05:27:10;8.30;99.90
23471;DHT22;11908;50.806;4.424;2022-09-21T05:29:37;8.40;99.90
23471;DHT22;11908;50.806;4.424;2022-09-21T05:32:26;8.40;99.90
23471;DHT22;11908;50.806;4.424;2022-09-21T05:36:03;8.40;99.90
23471;DHT22;11908;50.806;4.424;2022-09-21T05:38:03;8.40;99.90
23471;DHT22;11908;50.806;4.424;2022-09-21T05:40:32;8.40;99.90
23471;DHT22;11908;50.806;4.424;2022-09-21T05:42:58;8.40;99.90
23471;DHT22;11908;50.806;4.424;2022-09-21T05:45:24;8.40;99.90
23471;DHT22;11908;50.806;4.424;2022-09-21T05:50:32;8.50;99.90
23471;DHT22;11908;50.806;4.424;2022-09-21T05:55:57;8.70;99.90
23471;DHT22;11908;50.806;4.424;2022-09-21T06:03:42;9.00;99.90
23471;DHT22;11908;50.806;4.424;2022-09-21T06:06:08;9.10;99.90
23471;DHT22;11908;50.806;4.424;2022-09-21T06:08:34;9.20;99.90
23471;DHT22;11908;50.806;4.424;2022-09-21T06:11:00;9.20;99.90
23471;DHT22;11908;50.806;4.424;2022-09-21T06:13:26;9.30;99.90
23471;DHT22;11908;50.806;4.424;2022-09-21T06:15:52;9.30;99.90
23471;DHT22;11908;50.806;4.424;2022-09-21T06:18:18;9.40;99.90
23471;DHT22;11908;50.806;4.424;2022-09-21T06:20:44;9.50;99.90
23471;DHT22;11908;50.806;4.424;2022-09-21T06:23:12;9.60;99.90
23471;DHT22;11908;50.806;4.424;2022-09-21T06:25:38;9.60;99.90
23471;DHT22;11908;50.806;4.424;2022-09-21T06:28:05;9.70;99.90
23471;DHT22;11908;50.806;4.424;2022-09-21T06:30:31;9.80;99.90
23471;DHT22;11908;50.806;4.424;2022-09-21T06:32:59;9.80;99.90
23471;DHT22;11908;50.806;4.424;2022-09-21T06:35:26;9.80;99.90
23471;DHT22;11908;50.806;4.424;2022-09-21T06:38:06;9.90;99.90
23471;DHT22;11908;50.806;4.424;2022-09-21T06:40:33;9.90;99.90
23471;DHT22;11908;50.806;4.424;2022-09-21T06:43:01;10.10;99.90
23471;DHT22;11908;50.806;4.424;2022-09-21T06:45:27;10.20;99.90
23471;DHT22;11908;50.806;4.424;2022-09-21T06:47:53;10.20;99.90
23471;DHT22;11908;50.806;4.424;2022-09-21T06:50:20;10.30;99.90
23471;DHT22;11908;50.806;4.424;2022-09-21T06:52:45;10.20;99.90
23471;DHT22;11908;50.806;4.424;2022-09-21T06:55:11;10.30;99.90
23471;DHT22;11908;50.806;4.424;2022-09-21T06:57:37;10.40;99.90
23471;DHT22;11908;50.806;4.424;2022-09-21T07:00:08;10.50;99.90
23471;DHT22;11908;50.806;4.424;2022-09-21T07:02:34;10.80;99.90
23471;DHT22;11908;50.806;4.424;2022-09-21T07:05:00;11.10;99.90
23471;DHT22;11908;50.806;4.424;2022-09-21T07:07:27;11.20;99.90
23471;DHT22;11908;50.806;4.424;2022-09-21T07:09:57;11.30;99.90
23471;DHT22;11908;50.806;4.424;2022-09-21T07:12:29;11.40;99.90
23471;DHT22;11908;50.806;4.424;2022-09-21T07:14:59;11.50;99.90
23471;DHT22;11908;50.806;4.424;2022-09-21T07:17:24;11.60;99.90
23471;DHT22;11908;50.806;4.424;2022-09-21T07:19:51;11.60;99.90
23471;DHT22;11908;50.806;4.424;2022-09-21T07:22:17;11.60;99.90
23471;DHT22;11908;50.806;4.424;2022-09-21T07:24:42;11.70;99.90
23471;DHT22;11908;50.806;4.424;2022-09-21T07:27:08;11.80;99.90
23471;DHT22;11908;50.806;4.424;2022-09-21T07:29:34;11.80;99.90
23471;DHT22;11908;50.806;4.424;2022-09-21T07:31:59;11.90;99.90
23471;DHT22;11908;50.806;4.424;2022-09-21T07:34:25;12.00;99.90
23471;DHT22;11908;50.806;4.424;2022-09-21T07:36:51;12.10;99.90
23471;DHT22;11908;50.806;4.424;2022-09-21T07:39:16;12.20;99.90
23471;DHT22;11908;50.806;4.424;2022-09-21T07:41:42;12.30;99.90
23471;DHT22;11908;50.806;4.424;2022-09-21T07:44:07;12.40;99.90
23471;DHT22;11908;50.806;4.424;2022-09-21T07:46:33;12.40;99.90
23471;DHT22;11908;50.806;4.424;2022-09-21T07:49:00;12.60;99.90
23471;DHT22;11908;50.806;4.424;2022-09-21T07:51:26;12.70;99.90
23471;DHT22;11908;50.806;4.424;2022-09-21T07:53:55;12.90;99.90
23471;DHT22;11908;50.806;4.424;2022-09-21T07:56:21;13.00;99.90
23471;DHT22;11908;50.806;4.424;2022-09-21T07:58:47;13.00;99.90
23471;DHT22;11908;50.806;4.424;2022-09-21T08:01:33;13.20;99.90
23471;DHT22;11908;50.806;4.424;2022-09-21T08:04:00;13.40;99.90
23471;DHT22;11908;50.806;4.424;2022-09-21T08:06:28;13.70;99.90
23471;DHT22;11908;50.806;4.424;2022-09-21T08:08:54;14.30;99.90
23471;DHT22;11908;50.806;4.424;2022-09-21T08:11:21;15.30;99.90
23471;DHT22;11908;50.806;4.424;2022-09-21T08:13:58;16.30;99.90
23471;DHT22;11908;50.806;4.424;2022-09-21T08:16:25;16.80;99.90
23471;DHT22;11908;50.806;4.424;2022-09-21T08:18:51;17.00;99.90
23471;DHT22;11908;50.806;4.424;2022-09-21T08:21:17;18.00;99.90
23471;DHT22;11908;50.806;4.424;2022-09-21T08:23:43;19.00;99.90
23471;DHT22;11908;50.806;4.424;2022-09-21T08:26:13;19.90;99.90
23471;DHT22;11908;50.806;4.424;2022-09-21T08:28:47;21.00;99.90
23471;DHT22;11908;50.806;4.424;2022-09-21T08:31:14;21.30;99.90
23471;DHT22;11908;50.806;4.424;2022-09-21T08:33:41;22.40;99.90
23471;DHT22;11908;50.806;4.424;2022-09-21T08:36:07;23.60;99.90
23471;DHT22;11908;50.806;4.424;2022-09-21T08:38:35;24.70;99.90
23471;DHT22;11908;50.806;4.424;2022-09-21T08:41:02;25.90;99.90
23471;DHT22;11908;50.806;4.424;2022-09-21T08:43:41;25.90;99.90
23471;DHT22;11908;50.806;4.424;2022-09-21T08:46:14;26.10;99.90
23471;DHT22;11908;50.806;4.424;2022-09-21T08:48:46;26.10;99.90
23471;DHT22;11908;50.806;4.424;2022-09-21T08:51:22;27.10;99.90
23471;DHT22;11908;50.806;4.424;2022-09-21T08:53:52;27.90;99.90
23471;DHT22;11908;50.806;4.424;2022-09-21T08:56:22;27.10;99.90
23471;DHT22;11908;50.806;4.424;2022-09-21T08:58:47;27.30;99.90
23471;DHT22;11908;50.806;4.424;2022-09-21T09:01:43;26.00;99.90
23471;DHT22;11908;50.806;4.424;2022-09-21T09:10:01;26.30;99.90
23471;DHT22;11908;50.806;4.424;2022-09-21T09:18:12;25.90;99.90
23471;DHT22;11908;50.806;4.424;2022-09-21T09:20:48;26.70;99.90
23471;DHT22;11908;50.806;4.424;2022-09-21T09:23:23;26.90;97.60
23471;DHT22;11908;50.806;4.424;2022-09-21T09:25:54;26.70;98.20
23471;DHT22;11908;50.806;4.424;2022-09-21T09:31:18;27.00;99.60
23471;DHT22;11908;50.806;4.424;2022-09-21T09:34:15;26.70;97.20
23471;DHT22;11908;50.806;4.424;2022-09-21T09:36:45;27.70;98.20
23471;DHT22;11908;50.806;4.424;2022-09-21T09:39:13;28.50;96.30
23471;DHT22;11908;50.806;4.424;2022-09-21T09:47:30;28.40;93.80
23471;DHT22;11908;50.806;4.424;2022-09-21T09:50:26;27.60;94.10
23471;DHT22;11908;50.806;4.424;2022-09-21T09:52:53;28.10;94.10
23471;DHT22;11908;50.806;4.424;2022-09-21T09:55:23;28.30;93.50
23471;DHT22;11908;50.806;4.424;2022-09-21T09:57:50;28.80;92.30
23471;DHT22;11908;50.806;4.424;2022-09-21T10:00:19;28.40;90.60
23471;DHT22;11908;50.806;4.424;2022-09-21T10:02:47;27.70;91.70
23471;DHT22;11908;50.806;4.424;2022-09-21T10:05:31;27.20;92.40
23471;DHT22;11908;50.806;4.424;2022-09-21T10:08:00;26.60;93.60
23471;DHT22;11908;50.806;4.424;2022-09-21T10:10:32;25.00;95.70
23471;DHT22;11908;50.806;4.424;2022-09-21T10:13:28;24.90;97.70
23471;DHT22;11908;50.806;4.424;2022-09-21T10:16:13;24.70;96.00
23471;DHT22;11908;50.806;4.424;2022-09-21T10:18:49;25.20;97.60
23471;DHT22;11908;50.806;4.424;2022-09-21T10:21:22;26.80;95.80
23471;DHT22;11908;50.806;4.424;2022-09-21T10:24:01;26.80;94.40
23471;DHT22;11908;50.806;4.424;2022-09-21T10:26:36;26.20;93.70
23471;DHT22;11908;50.806;4.424;2022-09-21T10:29:28;25.70;94.70
23471;DHT22;11908;50.806;4.424;2022-09-21T10:34:39;24.10;95.20
23471;DHT22;11908;50.806;4.424;2022-09-21T10:37:45;23.80;97.10
23471;DHT22;11908;50.806;4.424;2022-09-21T10:42:51;22.40;99.20
23471;DHT22;11908;50.806;4.424;2022-09-21T10:45:20;22.80;99.50
23471;DHT22;11908;50.806;4.424;2022-09-21T10:47:53;23.30;97.40
23471;DHT22;11908;50.806;4.424;2022-09-21T10:50:40;24.40;96.90
23471;DHT22;11908;50.806;4.424;2022-09-21T10:55:39;24.40;95.80
23471;DHT22;11908;50.806;4.424;2022-09-21T10:58:11;23.20;98.80
23471;DHT22;11908;50.806;4.424;2022-09-21T11:00:43;23.50;99.30
23471;DHT22;11908;50.806;4.424;2022-09-21T11:06:13;23.10;98.80
23471;DHT22;11908;50.806;4.424;2022-09-21T11:08:48;22.30;99.80
23471;DHT22;11908;50.806;4.424;2022-09-21T11:11:24;21.80;99.90
23471;DHT22;11908;50.806;4.424;2022-09-21T11:16:57;21.40;99.90
23471;DHT22;11908;50.806;4.424;2022-09-21T11:19:40;21.00;99.90
23471;DHT22;11908;50.806;4.424;2022-09-21T11:25:28;20.00;99.90
23471;DHT22;11908;50.806;4.424;2022-09-21T11:28:03;19.10;99.90
23471;DHT22;11908;50.806;4.424;2022-09-21T11:30:44;18.70;99.90
23471;DHT22;11908;50.806;4.424;2022-09-21T11:33:28;18.60;99.90
23471;DHT22;11908;50.806;4.424;2022-09-21T11:38:59;18.90;99.90
23471;DHT22;11908;50.806;4.424;2022-09-21T11:41:51;18.90;99.90
23471;DHT22;11908;50.806;4.424;2022-09-21T11:57:30;19.00;99.90
23471;DHT22;11908;50.806;4.424;2022-09-21T12:00:15;19.70;99.90
23471;DHT22;11908;50.806;4.424;2022-09-21T12:05:47;20.70;99.90
23471;DHT22;11908;50.806;4.424;2022-09-21T12:08:22;21.20;99.90
23471;DHT22;11908;50.806;4.424;2022-09-21T12:16:47;22.00;99.90
23471;DHT22;11908;50.806;4.424;2022-09-21T12:19:36;22.50;99.60
23471;DHT22;11908;50.806;4.424;2022-09-21T12:22:11;22.30;99.70
23471;DHT22;11908;50.806;4.424;2022-09-21T12:25:03;21.70;99.90
23471;DHT22;11908;50.806;4.424;2022-09-21T12:30:20;20.70;99.90
23471;DHT22;11908;50.806;4.424;2022-09-21T12:32:58;21.00;99.90
23471;DHT22;11908;50.806;4.424;2022-09-21T12:38:34;20.90;99.90
23471;DHT22;11908;50.806;4.424;2022-09-21T12:44:19;20.20;99.90
23471;DHT22;11908;50.806;4.424;2022-09-21T12:47:03;19.90;99.90
23471;DHT22;11908;50.806;4.424;2022-09-21T12:49:45;19.90;99.90
23471;DHT22;11908;50.806;4.424;2022-09-21T12:52:18;20.20;99.90
23471;DHT22;11908;50.806;4.424;2022-09-21T13:00:39;20.40;99.90
23471;DHT22;11908;50.806;4.424;2022-09-21T13:03:15;20.70;99.90
23471;DHT22;11908;50.806;4.424;2022-09-21T13:08:39;20.50;99.90
23471;DHT22;11908;50.806;4.424;2022-09-21T13:11:08;20.30;99.90
23471;DHT22;11908;50.806;4.424;2022-09-21T13:13:43;19.80;99.90
23471;DHT22;11908;50.806;4.424;2022-09-21T13:16:26;19.30;99.90
23471;DHT22;11908;50.806;4.424;2022-09-21T13:19:03;19.20;99.90
23471;DHT22;11908;50.806;4.424;2022-09-21T13:21:31;19.40;99.90
23471;DHT22;11908;50.806;4.424;2022-09-21T13:23:58;19.80;99.90
23471;DHT22;11908;50.806;4.424;2022-09-21T13:26:38;20.20;99.90
23471;DHT22;11908;50.806;4.424;2022-09-21T13:34:39;20.90;99.90
23471;DHT22;11908;50.806;4.424;2022-09-21T13:39:55;20.30;99.90
23471;DHT22;11908;50.806;4.424;2022-09-21T13:48:16;19.30;99.90
23471;DHT22;11908;50.806;4.424;2022-09-21T13:50:43;19.10;99.90
23471;DHT22;11908;50.806;4.424;2022-09-21T13:53:26;18.90;99.90
23471;DHT22;11908;50.806;4.424;2022-09-21T13:55:54;18.70;99.90
23471;DHT22;11908;50.806;4.424;2022-09-21T13:58:31;18.50;99.90
23471;DHT22;11908;50.806;4.424;2022-09-21T14:01:03;18.50;99.90
23471;DHT22;11908;50.806;4.424;2022-09-21T14:03:41;18.30;99.90
23471;DHT22;11908;50.806;4.424;2022-09-21T14:06:25;18.40;99.90
23471;DHT22;11908;50.806;4.424;2022-09-21T14:11:22;17.80;99.90
23471;DHT22;11908;50.806;4.424;2022-09-21T14:19:03;17.80;99.90
23471;DHT22;11908;50.806;4.424;2022-09-21T14:21:29;17.70;99.90
23471;DHT22;11908;50.806;4.424;2022-09-21T14:31:44;17.50;99.90
23471;DHT22;11908;50.806;4.424;2022-09-21T14:34:13;17.50;99.90
23471;DHT22;11908;50.806;4.424;2022-09-21T14:36:46;17.60;99.90
23471;DHT22;11908;50.806;4.424;2022-09-21T14:39:21;17.80;99.90
23471;DHT22;11908;50.806;4.424;2022-09-21T14:41:50;17.80;99.90
23471;DHT22;11908;50.806;4.424;2022-09-21T14:44:22;17.90;99.90
23471;DHT22;11908;50.806;4.424;2022-09-21T14:54:47;18.00;99.90
23471;DHT22;11908;50.806;4.424;2022-09-21T15:00:20;18.00;99.90
23471;DHT22;11908;50.806;4.424;2022-09-21T15:05:55;18.20;99.90
23471;DHT22;11908;50.806;4.424;2022-09-21T15:11:29;18.20;99.90
23471;DHT22;11908;50.806;4.424;2022-09-21T15:21:47;19.00;99.90
23471;DHT22;11908;50.806;4.424;2022-09-21T15:24:31;19.10;99.90
23471;DHT22;11908;50.806;4.424;2022-09-21T15:27:06;19.20;99.90
23471;DHT22;11908;50.806;4.424;2022-09-21T15:29:33;19.40;99.90
23471;DHT22;11908;50.806;4.424;2022-09-21T15:31:59;19.50;99.90
23471;DHT22;11908;50.806;4.424;2022-09-21T15:34:25;19.60;99.90
23471;DHT22;11908;50.806;4.424;2022-09-21T15:36:51;19.40;99.90
23471;DHT22;11908;50.806;4.424;2022-09-21T15:41:47;18.50;99.90
23471;DHT22;11908;50.806;4.424;2022-09-21T15:44:22;18.10;99.90
23471;DHT22;11908;50.806;4.424;2022-09-21T15:46:54;17.90;99.90
23471;DHT22;11908;50.806;4.424;2022-09-21T15:49:26;17.70;99.90
23471;DHT22;11908;50.806;4.424;2022-09-21T15:52:04;17.40;99.90
23471;DHT22;11908;50.806;4.424;2022-09-21T15:54:47;17.20;99.90
23471;DHT22;11908;50.806;4.424;2022-09-21T15:57:37;17.10;99.90
23471;DHT22;11908;50.806;4.424;2022-09-21T16:00:16;17.10;99.90
23471;DHT22;11908;50.806;4.424;2022-09-21T16:05:42;17.00;99.90
23471;DHT22;11908;50.806;4.424;2022-09-21T16:08:30;17.10;99.90
23471;DHT22;11908;50.806;4.424;2022-09-21T16:11:13;17.20;99.90
23471;DHT22;11908;50.806;4.424;2022-09-21T16:13:41;17.30;99.90
23471;DHT22;11908;50.806;4.424;2022-09-21T16:16:25;17.30;99.90
23471;DHT22;11908;50.806;4.424;2022-09-21T16:18:54;17.30;99.90
23471;DHT22;11908;50.806;4.424;2022-09-21T16:21:31;17.40;99.90
23471;DHT22;11908;50.806;4.424;2022-09-21T16:24:08;17.30;99.90
23471;DHT22;11908;50.806;4.424;2022-09-21T16:26:39;17.30;99.90
23471;DHT22;11908;50.806;4.424;2022-09-21T16:31:41;17.20;99.90
23471;DHT22;11908;50.806;4.424;2022-09-21T16:36:42;17.00;99.90
23471;DHT22;11908;50.806;4.424;2022-09-21T16:39:10;16.90;99.90
23471;DHT22;11908;50.806;4.424;2022-09-21T16:41:42;16.90;99.90
23471;DHT22;11908;50.806;4.424;2022-09-21T16:44:10;16.80;99.90
23471;DHT22;11908;50.806;4.424;2022-09-21T16:46:39;16.60;99.90
23471;DHT22;11908;50.806;4.424;2022-09-21T16:49:11;16.50;99.90
23471;DHT22;11908;50.806;4.424;2022-09-21T16:51:39;16.40;99.90
23471;DHT22;11908;50.806;4.424;2022-09-21T16:54:05;16.30;99.90
23471;DHT22;11908;50.806;4.424;2022-09-21T16:56:32;16.20;99.90
23471;DHT22;11908;50.806;4.424;2022-09-21T16:59:00;16.10;99.90
23471;DHT22;11908;50.806;4.424;2022-09-21T17:01:28;16.10;99.90
23471;DHT22;11908;50.806;4.424;2022-09-21T17:03:54;16.00;99.90
23471;DHT22;11908;50.806;4.424;2022-09-21T17:06:21;15.90;99.90
23471;DHT22;11908;50.806;4.424;2022-09-21T17:08:48;15.80;99.90
23471;DHT22;11908;50.806;4.424;2022-09-21T17:11:18;15.70;99.90
23471;DHT22;11908;50.806;4.424;2022-09-21T17:13:47;15.70;99.90
23471;DHT22;11908;50.806;4.424;2022-09-21T17:16:14;15.60;99.90
23471;DHT22;11908;50.806;4.424;2022-09-21T17:18:43;15.50;99.90
23471;DHT22;11908;50.806;4.424;2022-09-21T17:21:09;15.30;99.90
23471;DHT22;11908;50.806;4.424;2022-09-21T17:23:35;15.20;99.90
23471;DHT22;11908;50.806;4.424;2022-09-21T17:26:01;15.10;99.90
23471;DHT22;11908;50.806;4.424;2022-09-21T17:28:27;15.10;99.90
23471;DHT22;11908;50.806;4.424;2022-09-21T17:30:53;15.00;99.90
23471;DHT22;11908;50.806;4.424;2022-09-21T17:33:19;14.80;99.90
23471;DHT22;11908;50.806;4.424;2022-09-21T17:35:46;14.60;99.90
23471;DHT22;11908;50.806;4.424;2022-09-21T17:38:15;14.50;99.90
23471;DHT22;11908;50.806;4.424;2022-09-21T17:40:43;14.40;99.90
23471;DHT22;11908;50.806;4.424;2022-09-21T17:46:06;14.20;99.90
23471;DHT22;11908;50.806;4.424;2022-09-21T17:48:39;14.00;99.90
23471;DHT22;11908;50.806;4.424;2022-09-21T17:51:05;14.00;99.90
23471;DHT22;11908;50.806;4.424;2022-09-21T17:53:31;13.90;99.90
23471;DHT22;11908;50.806;4.424;2022-09-21T17:59:03;13.80;99.90
23471;DHT22;11908;50.806;4.424;2022-09-21T18:01:34;13.70;99.90
23471;DHT22;11908;50.806;4.424;2022-09-21T18:04:01;13.60;99.90
23471;DHT22;11908;50.806;4.424;2022-09-21T18:06:28;13.60;99.90
23471;DHT22;11908;50.806;4.424;2022-09-21T18:08:54;13.50;99.90
23471;DHT22;11908;50.806;4.424;2022-09-21T18:22:29;13.10;99.90
23471;DHT22;11908;50.806;4.424;2022-09-21T18:24:58;13.10;99.90
23471;DHT22;11908;50.806;4.424;2022-09-21T18:27:25;13.00;99.90
23471;DHT22;11908;50.806;4.424;2022-09-21T18:29:51;13.00;99.90
23471;DHT22;11908;50.806;4.424;2022-09-21T18:32:45;13.00;99.90
23471;DHT22;11908;50.806;4.424;2022-09-21T18:38:26;12.90;99.90
23471;DHT22;11908;50.806;4.424;2022-09-21T18:41:18;12.80;99.90
23471;DHT22;11908;50.806;4.424;2022-09-21T18:47:09;12.70;99.90
23471;DHT22;11908;50.806;4.424;2022-09-21T18:50:21;12.60;99.90
23471;DHT22;11908;50.806;4.424;2022-09-21T18:53:18;12.60;99.90
23471;DHT22;11908;50.806;4.424;2022-09-21T18:55:46;12.50;99.90
23471;DHT22;11908;50.806;4.424;2022-09-21T18:58:13;12.50;99.90
23471;DHT22;11908;50.806;4.424;2022-09-21T19:00:40;12.50;99.90
23471;DHT22;11908;50.806;4.424;2022-09-21T19:03:11;12.40;99.90
23471;DHT22;11908;50.806;4.424;2022-09-21T19:05:43;12.40;99.90
23471;DHT22;11908;50.806;4.424;2022-09-21T19:11:18;12.30;99.90
23471;DHT22;11908;50.806;4.424;2022-09-21T19:29:58;12.00;99.90
23471;DHT22;11908;50.806;4.424;2022-09-21T19:35:00;12.00;99.90
23471;DHT22;11908;50.806;4.424;2022-09-21T19:37:30;12.00;99.90
23471;DHT22;11908;50.806;4.424;2022-09-21T19:39:56;11.90;99.90
23471;DHT22;11908;50.806;4.424;2022-09-21T19:42:36;11.90;99.90